Crystal River, Florida
Current Conditions -  °F | °C
As of 1:15 PM on Monday 22 Dec 2014 (Local Time) from KCGC Reporting Station
Overcast Overcast  
Wind Chill: 73°   Ceiling: 1700
Heat Index: 73°   Visibility: 10mi
Dew Point: 68°   Wind: 5mph
Humidity: 83%   Direction: 160°SSE
Pressure: 29.92"   Gusts: NA
Location:  28.9°N, 82.6°W
Report Text: KCGC 221815Z AUTO 16004KT 10SM OVC017 23/20 A2992 RMK AO2
Loading
Personal Weather Stations






























Interactive Weather Map New forecast layout! Learn more

10-Day Weather Forecast

Advertisements
Track Severe Weather on mobile